sensor_id;sensor_type;location;lat;lon;timestamp;temperature;humidity
7028;DHT22;3555;53.248;10.336;2023-12-04T00:02:13;-1.70;99.90
7028;DHT22;3555;53.248;10.336;2023-12-04T00:04:40;-1.60;99.90
7028;DHT22;3555;53.248;10.336;2023-12-04T00:07:08;-1.70;99.90
7028;DHT22;3555;53.248;10.336;2023-12-04T00:09:35;-1.70;99.90
7028;DHT22;3555;53.248;10.336;2023-12-04T00:12:02;-1.70;99.90
7028;DHT22;3555;53.248;10.336;2023-12-04T00:14:29;-1.90;99.90
7028;DHT22;3555;53.248;10.336;2023-12-04T00:16:56;-1.90;99.90
7028;DHT22;3555;53.248;10.336;2023-12-04T00:19:22;-1.90;99.90
7028;DHT22;3555;53.248;10.336;2023-12-04T00:21:49;-2.00;99.90
7028;DHT22;3555;53.248;10.336;2023-12-04T00:24:17;-2.00;99.90
7028;DHT22;3555;53.248;10.336;2023-12-04T00:26:44;-2.00;99.90
7028;DHT22;3555;53.248;10.336;2023-12-04T00:29:11;-2.10;99.90
7028;DHT22;3555;53.248;10.336;2023-12-04T00:31:38;-2.20;99.90
7028;DHT22;3555;53.248;10.336;2023-12-04T00:34:05;-2.20;99.90
7028;DHT22;3555;53.248;10.336;2023-12-04T00:36:32;-2.30;99.90
7028;DHT22;3555;53.248;10.336;2023-12-04T00:38:59;-2.30;99.90
7028;DHT22;3555;53.248;10.336;2023-12-04T00:41:27;-2.30;99.90
7028;DHT22;3555;53.248;10.336;2023-12-04T00:43:54;-2.30;99.90
7028;DHT22;3555;53.248;10.336;2023-12-04T00:46:21;-2.40;99.90
7028;DHT22;3555;53.248;10.336;2023-12-04T00:48:48;-2.40;99.90
7028;DHT22;3555;53.248;10.336;2023-12-04T00:51:15;-2.40;99.90
7028;DHT22;3555;53.248;10.336;2023-12-04T00:53:41;-2.30;99.90
7028;DHT22;3555;53.248;10.336;2023-12-04T00:56:09;-2.40;99.90
7028;DHT22;3555;53.248;10.336;2023-12-04T00:58:38;-2.50;99.90
7028;DHT22;3555;53.248;10.336;2023-12-04T01:01:05;-2.50;99.90
7028;DHT22;3555;53.248;10.336;2023-12-04T01:03:32;-2.50;99.90
7028;DHT22;3555;53.248;10.336;2023-12-04T01:05:59;-2.60;99.90
7028;DHT22;3555;53.248;10.336;2023-12-04T01:08:26;-2.60;99.90
7028;DHT22;3555;53.248;10.336;2023-12-04T01:10:53;-2.60;99.90
7028;DHT22;3555;53.248;10.336;2023-12-04T01:13:20;-2.60;99.90
7028;DHT22;3555;53.248;10.336;2023-12-04T01:15:48;-2.50;99.90
7028;DHT22;3555;53.248;10.336;2023-12-04T01:18:16;-2.60;99.90
7028;DHT22;3555;53.248;10.336;2023-12-04T01:20:43;-2.60;99.90
7028;DHT22;3555;53.248;10.336;2023-12-04T01:23:10;-2.60;99.90
7028;DHT22;3555;53.248;10.336;2023-12-04T01:25:37;-2.60;99.90
7028;DHT22;3555;53.248;10.336;2023-12-04T01:28:04;-2.70;99.90
7028;DHT22;3555;53.248;10.336;2023-12-04T01:30:31;-2.70;99.90
7028;DHT22;3555;53.248;10.336;2023-12-04T01:32:59;-2.70;99.90
7028;DHT22;3555;53.248;10.336;2023-12-04T01:35:26;-2.70;99.90
7028;DHT22;3555;53.248;10.336;2023-12-04T01:37:53;-2.80;99.90
7028;DHT22;3555;53.248;10.336;2023-12-04T01:40:20;-2.90;99.90
7028;DHT22;3555;53.248;10.336;2023-12-04T01:42:46;-2.90;99.90
7028;DHT22;3555;53.248;10.336;2023-12-04T01:45:13;-2.80;99.90
7028;DHT22;3555;53.248;10.336;2023-12-04T01:47:40;-2.60;99.90
7028;DHT22;3555;53.248;10.336;2023-12-04T01:50:09;-2.50;99.90
7028;DHT22;3555;53.248;10.336;2023-12-04T01:52:36;-2.30;99.90
7028;DHT22;3555;53.248;10.336;2023-12-04T01:55:05;-2.30;99.90
7028;DHT22;3555;53.248;10.336;2023-12-04T01:57:33;-2.30;99.90
7028;DHT22;3555;53.248;10.336;2023-12-04T02:00:00;-2.40;99.90
7028;DHT22;3555;53.248;10.336;2023-12-04T02:02:27;-2.50;99.90
7028;DHT22;3555;53.248;10.336;2023-12-04T02:04:55;-2.50;99.90
7028;DHT22;3555;53.248;10.336;2023-12-04T02:07:25;-2.60;99.90
7028;DHT22;3555;53.248;10.336;2023-12-04T02:09:52;-2.60;99.90
7028;DHT22;3555;53.248;10.336;2023-12-04T02:12:19;-2.70;99.90
7028;DHT22;3555;53.248;10.336;2023-12-04T02:14:46;-2.90;99.90
7028;DHT22;3555;53.248;10.336;2023-12-04T02:17:14;-3.00;99.90
7028;DHT22;3555;53.248;10.336;2023-12-04T02:19:42;-2.90;99.90
7028;DHT22;3555;53.248;10.336;2023-12-04T02:22:08;-2.90;99.90
7028;DHT22;3555;53.248;10.336;2023-12-04T02:24:37;-2.90;99.90
7028;DHT22;3555;53.248;10.336;2023-12-04T02:27:09;-2.90;99.90
7028;DHT22;3555;53.248;10.336;2023-12-04T02:29:40;-2.90;99.90
7028;DHT22;3555;53.248;10.336;2023-12-04T02:32:10;-2.90;99.90
7028;DHT22;3555;53.248;10.336;2023-12-04T02:34:40;-2.90;99.90
7028;DHT22;3555;53.248;10.336;2023-12-04T02:37:08;-2.80;99.90
7028;DHT22;3555;53.248;10.336;2023-12-04T02:39:37;-2.70;99.90
7028;DHT22;3555;53.248;10.336;2023-12-04T02:42:04;-2.70;99.90
7028;DHT22;3555;53.248;10.336;2023-12-04T02:44:32;-2.60;99.90
7028;DHT22;3555;53.248;10.336;2023-12-04T02:46:59;-2.50;99.90
7028;DHT22;3555;53.248;10.336;2023-12-04T02:49:26;-2.70;99.90
7028;DHT22;3555;53.248;10.336;2023-12-04T02:51:53;-2.80;99.90
7028;DHT22;3555;53.248;10.336;2023-12-04T02:54:19;-2.90;99.90
7028;DHT22;3555;53.248;10.336;2023-12-04T02:56:48;-2.90;99.90
7028;DHT22;3555;53.248;10.336;2023-12-04T02:59:14;-3.00;99.90
7028;DHT22;3555;53.248;10.336;2023-12-04T03:01:41;-2.90;99.90
7028;DHT22;3555;53.248;10.336;2023-12-04T03:04:08;-3.10;99.90
7028;DHT22;3555;53.248;10.336;2023-12-04T03:06:35;-3.10;99.90
7028;DHT22;3555;53.248;10.336;2023-12-04T03:09:02;-3.00;99.90
7028;DHT22;3555;53.248;10.336;2023-12-04T03:11:30;-3.00;99.90
7028;DHT22;3555;53.248;10.336;2023-12-04T03:14:00;-3.00;99.90
7028;DHT22;3555;53.248;10.336;2023-12-04T03:16:27;-2.90;99.90
7028;DHT22;3555;53.248;10.336;2023-12-04T03:18:54;-2.90;99.90
7028;DHT22;3555;53.248;10.336;2023-12-04T03:21:21;-2.80;99.90
7028;DHT22;3555;53.248;10.336;2023-12-04T03:23:47;-2.70;99.90
7028;DHT22;3555;53.248;10.336;2023-12-04T03:26:14;-2.80;99.90
7028;DHT22;3555;53.248;10.336;2023-12-04T03:28:41;-3.20;99.90
7028;DHT22;3555;53.248;10.336;2023-12-04T03:31:09;-2.80;99.90
7028;DHT22;3555;53.248;10.336;2023-12-04T03:33:36;-2.90;99.90
7028;DHT22;3555;53.248;10.336;2023-12-04T03:36:04;-2.90;99.90
7028;DHT22;3555;53.248;10.336;2023-12-04T03:38:31;-2.80;99.90
7028;DHT22;3555;53.248;10.336;2023-12-04T03:40:58;-2.80;99.90
7028;DHT22;3555;53.248;10.336;2023-12-04T03:43:25;-2.80;99.90
7028;DHT22;3555;53.248;10.336;2023-12-04T03:45:52;-2.70;99.90
7028;DHT22;3555;53.248;10.336;2023-12-04T03:48:20;-2.70;99.90
7028;DHT22;3555;53.248;10.336;2023-12-04T03:50:47;-2.70;99.90
7028;DHT22;3555;53.248;10.336;2023-12-04T03:53:14;-2.80;99.90
7028;DHT22;3555;53.248;10.336;2023-12-04T03:55:41;-2.90;99.90
7028;DHT22;3555;53.248;10.336;2023-12-04T03:58:08;-2.80;99.90
7028;DHT22;3555;53.248;10.336;2023-12-04T04:00:35;-2.80;99.90
7028;DHT22;3555;53.248;10.336;2023-12-04T04:03:06;-2.90;99.90
7028;DHT22;3555;53.248;10.336;2023-12-04T04:05:34;-2.90;99.90
7028;DHT22;3555;53.248;10.336;2023-12-04T04:08:01;-2.90;99.90
7028;DHT22;3555;53.248;10.336;2023-12-04T04:10:28;-2.90;99.90
7028;DHT22;3555;53.248;10.336;2023-12-04T04:12:55;-2.90;99.90
7028;DHT22;3555;53.248;10.336;2023-12-04T04:15:22;-2.90;99.90
7028;DHT22;3555;53.248;10.336;2023-12-04T04:17:49;-2.90;99.90
7028;DHT22;3555;53.248;10.336;2023-12-04T04:20:16;-2.90;99.90
7028;DHT22;3555;53.248;10.336;2023-12-04T04:22:44;-2.90;99.90
7028;DHT22;3555;53.248;10.336;2023-12-04T04:25:12;-3.00;99.90
7028;DHT22;3555;53.248;10.336;2023-12-04T04:27:39;-3.00;99.90
7028;DHT22;3555;53.248;10.336;2023-12-04T04:30:06;-3.00;99.90
7028;DHT22;3555;53.248;10.336;2023-12-04T04:32:34;-3.00;99.90
7028;DHT22;3555;53.248;10.336;2023-12-04T04:35:01;-3.00;99.90
7028;DHT22;3555;53.248;10.336;2023-12-04T04:37:28;-2.90;99.90
7028;DHT22;3555;53.248;10.336;2023-12-04T04:39:56;-3.00;99.90
7028;DHT22;3555;53.248;10.336;2023-12-04T04:42:23;-3.00;99.90
7028;DHT22;3555;53.248;10.336;2023-12-04T04:44:50;-3.00;99.90
7028;DHT22;3555;53.248;10.336;2023-12-04T04:47:17;-3.10;99.90
7028;DHT22;3555;53.248;10.336;2023-12-04T04:49:44;-3.10;99.90
7028;DHT22;3555;53.248;10.336;2023-12-04T04:52:10;-3.10;99.90
7028;DHT22;3555;53.248;10.336;2023-12-04T04:54:37;-3.10;99.90
7028;DHT22;3555;53.248;10.336;2023-12-04T04:57:06;-3.10;99.90
7028;DHT22;3555;53.248;10.336;2023-12-04T04:59:33;-3.10;99.90
7028;DHT22;3555;53.248;10.336;2023-12-04T05:02:00;-3.10;99.90
7028;DHT22;3555;53.248;10.336;2023-12-04T05:04:28;-3.00;99.90
7028;DHT22;3555;53.248;10.336;2023-12-04T05:06:55;-2.90;99.90
7028;DHT22;3555;53.248;10.336;2023-12-04T05:09:22;-3.00;99.90
7028;DHT22;3555;53.248;10.336;2023-12-04T05:11:49;-3.00;99.90
7028;DHT22;3555;53.248;10.336;2023-12-04T05:14:17;-3.10;99.90
7028;DHT22;3555;53.248;10.336;2023-12-04T05:16:44;-3.00;99.90
7028;DHT22;3555;53.248;10.336;2023-12-04T05:19:11;-3.10;99.90
7028;DHT22;3555;53.248;10.336;2023-12-04T05:21:38;-3.10;99.90
7028;DHT22;3555;53.248;10.336;2023-12-04T05:24:05;-3.10;99.90
7028;DHT22;3555;53.248;10.336;2023-12-04T05:26:32;-3.10;99.90
7028;DHT22;3555;53.248;10.336;2023-12-04T05:28:59;-3.10;99.90
7028;DHT22;3555;53.248;10.336;2023-12-04T05:31:28;-3.10;99.90
7028;DHT22;3555;53.248;10.336;2023-12-04T05:33:54;-3.10;99.90
7028;DHT22;3555;53.248;10.336;2023-12-04T05:36:21;-3.10;99.90
7028;DHT22;3555;53.248;10.336;2023-12-04T05:38:48;-3.10;99.90
7028;DHT22;3555;53.248;10.336;2023-12-04T05:41:15;-3.10;99.90
7028;DHT22;3555;53.248;10.336;2023-12-04T05:43:42;-3.00;99.90
7028;DHT22;3555;53.248;10.336;2023-12-04T05:46:09;-3.00;99.90
7028;DHT22;3555;53.248;10.336;2023-12-04T05:48:37;-3.00;99.90
7028;DHT22;3555;53.248;10.336;2023-12-04T05:51:04;-3.00;99.90
7028;DHT22;3555;53.248;10.336;2023-12-04T05:53:31;-2.90;99.90
7028;DHT22;3555;53.248;10.336;2023-12-04T05:55:58;-2.90;99.90
7028;DHT22;3555;53.248;10.336;2023-12-04T05:58:25;-2.80;99.90
7028;DHT22;3555;53.248;10.336;2023-12-04T06:00:52;-2.80;99.90
7028;DHT22;3555;53.248;10.336;2023-12-04T06:03:19;-2.90;99.90
7028;DHT22;3555;53.248;10.336;2023-12-04T06:05:47;-2.90;99.90
7028;DHT22;3555;53.248;10.336;2023-12-04T06:08:14;-2.90;99.90
7028;DHT22;3555;53.248;10.336;2023-12-04T06:10:41;-2.90;99.90
7028;DHT22;3555;53.248;10.336;2023-12-04T06:13:08;-2.90;99.90
7028;DHT22;3555;53.248;10.336;2023-12-04T06:15:35;-2.80;99.90
7028;DHT22;3555;53.248;10.336;2023-12-04T06:18:01;-2.90;99.90
7028;DHT22;3555;53.248;10.336;2023-12-04T06:20:28;-2.90;99.90
7028;DHT22;3555;53.248;10.336;2023-12-04T06:22:57;-2.80;99.90
7028;DHT22;3555;53.248;10.336;2023-12-04T06:25:25;-2.70;99.90
7028;DHT22;3555;53.248;10.336;2023-12-04T06:27:52;-2.80;99.90
7028;DHT22;3555;53.248;10.336;2023-12-04T06:30:20;-2.70;99.90
7028;DHT22;3555;53.248;10.336;2023-12-04T06:32:47;-2.70;99.90
7028;DHT22;3555;53.248;10.336;2023-12-04T06:35:15;-2.70;99.90
7028;DHT22;3555;53.248;10.336;2023-12-04T06:37:43;-2.80;99.90
7028;DHT22;3555;53.248;10.336;2023-12-04T06:40:12;-2.70;99.90
7028;DHT22;3555;53.248;10.336;2023-12-04T06:42:39;-2.80;99.90
7028;DHT22;3555;53.248;10.336;2023-12-04T06:45:08;-2.70;99.90
7028;DHT22;3555;53.248;10.336;2023-12-04T06:47:36;-2.60;99.90
7028;DHT22;3555;53.248;10.336;2023-12-04T06:50:04;-2.70;99.90
7028;DHT22;3555;53.248;10.336;2023-12-04T06:52:31;-2.60;99.90
7028;DHT22;3555;53.248;10.336;2023-12-04T06:54:58;-2.60;99.90
7028;DHT22;3555;53.248;10.336;2023-12-04T06:57:26;-2.50;99.90
7028;DHT22;3555;53.248;10.336;2023-12-04T06:59:53;-2.50;99.90
7028;DHT22;3555;53.248;10.336;2023-12-04T07:02:20;-2.20;99.90
7028;DHT22;3555;53.248;10.336;2023-12-04T07:04:47;-2.40;99.90
7028;DHT22;3555;53.248;10.336;2023-12-04T07:07:14;-2.30;99.90
7028;DHT22;3555;53.248;10.336;2023-12-04T07:09:41;-2.30;99.90
7028;DHT22;3555;53.248;10.336;2023-12-04T07:12:07;-2.20;99.90
7028;DHT22;3555;53.248;10.336;2023-12-04T07:14:36;-2.10;99.90
7028;DHT22;3555;53.248;10.336;2023-12-04T07:17:03;-2.10;99.90
7028;DHT22;3555;53.248;10.336;2023-12-04T07:19:30;-2.20;99.90
7028;DHT22;3555;53.248;10.336;2023-12-04T07:21:57;-2.20;99.90
7028;DHT22;3555;53.248;10.336;2023-12-04T07:24:24;-2.10;99.90
7028;DHT22;3555;53.248;10.336;2023-12-04T07:26:52;-2.00;99.90
7028;DHT22;3555;53.248;10.336;2023-12-04T07:29:19;-1.90;99.90
7028;DHT22;3555;53.248;10.336;2023-12-04T07:31:47;-1.90;99.90
7028;DHT22;3555;53.248;10.336;2023-12-04T07:34:14;-2.00;99.90
7028;DHT22;3555;53.248;10.336;2023-12-04T07:36:41;-1.90;99.90
7028;DHT22;3555;53.248;10.336;2023-12-04T07:39:09;-2.00;99.90
7028;DHT22;3555;53.248;10.336;2023-12-04T07:41:36;-1.60;99.90
7028;DHT22;3555;53.248;10.336;2023-12-04T07:44:04;-1.90;99.90
7028;DHT22;3555;53.248;10.336;2023-12-04T07:46:31;-1.90;99.90
7028;DHT22;3555;53.248;10.336;2023-12-04T07:48:59;-1.90;99.90
7028;DHT22;3555;53.248;10.336;2023-12-04T07:51:26;-1.90;99.90
7028;DHT22;3555;53.248;10.336;2023-12-04T07:53:53;-1.90;99.90
7028;DHT22;3555;53.248;10.336;2023-12-04T07:56:20;-1.90;99.90
7028;DHT22;3555;53.248;10.336;2023-12-04T07:58:46;-1.90;99.90
7028;DHT22;3555;53.248;10.336;2023-12-04T08:01:14;-1.90;99.90
7028;DHT22;3555;53.248;10.336;2023-12-04T08:03:41;-1.90;99.90
7028;DHT22;3555;53.248;10.336;2023-12-04T08:06:11;-1.80;99.90
7028;DHT22;3555;53.248;10.336;2023-12-04T08:08:36;-2.00;99.90
7028;DHT22;3555;53.248;10.336;2023-12-04T08:11:03;-2.10;99.90
7028;DHT22;3555;53.248;10.336;2023-12-04T08:13:30;-2.20;99.90
7028;DHT22;3555;53.248;10.336;2023-12-04T08:15:57;-2.10;99.90
7028;DHT22;3555;53.248;10.336;2023-12-04T08:18:26;-2.00;99.90
7028;DHT22;3555;53.248;10.336;2023-12-04T08:20:53;-2.00;99.90
7028;DHT22;3555;53.248;10.336;2023-12-04T08:23:21;-2.10;99.90
7028;DHT22;3555;53.248;10.336;2023-12-04T08:25:48;-2.00;99.90
7028;DHT22;3555;53.248;10.336;2023-12-04T08:28:15;-2.00;99.90
7028;DHT22;3555;53.248;10.336;2023-12-04T08:30:41;-2.00;99.90
7028;DHT22;3555;53.248;10.336;2023-12-04T08:33:08;-2.00;99.90
7028;DHT22;3555;53.248;10.336;2023-12-04T08:35:35;-2.00;99.90
7028;DHT22;3555;53.248;10.336;2023-12-04T08:38:02;-1.90;99.90
7028;DHT22;3555;53.248;10.336;2023-12-04T08:40:30;-2.00;99.90
7028;DHT22;3555;53.248;10.336;2023-12-04T08:42:57;-2.00;99.90
7028;DHT22;3555;53.248;10.336;2023-12-04T08:45:24;-1.90;99.90
7028;DHT22;3555;53.248;10.336;2023-12-04T08:47:52;-1.90;99.90
7028;DHT22;3555;53.248;10.336;2023-12-04T08:50:19;-1.90;99.90
7028;DHT22;3555;53.248;10.336;2023-12-04T08:52:46;-1.90;99.90
7028;DHT22;3555;53.248;10.336;2023-12-04T08:55:13;-1.90;99.90
7028;DHT22;3555;53.248;10.336;2023-12-04T08:57:41;-1.80;99.90
7028;DHT22;3555;53.248;10.336;2023-12-04T09:00:09;-1.90;99.90
7028;DHT22;3555;53.248;10.336;2023-12-04T09:02:36;-1.90;99.90
7028;DHT22;3555;53.248;10.336;2023-12-04T09:05:03;-1.80;99.90
7028;DHT22;3555;53.248;10.336;2023-12-04T09:07:30;-1.80;99.90
7028;DHT22;3555;53.248;10.336;2023-12-04T09:09:57;-1.80;99.90
7028;DHT22;3555;53.248;10.336;2023-12-04T09:12:24;-1.80;99.90
7028;DHT22;3555;53.248;10.336;2023-12-04T09:14:53;-1.80;99.90
7028;DHT22;3555;53.248;10.336;2023-12-04T09:17:20;-1.70;99.90
7028;DHT22;3555;53.248;10.336;2023-12-04T09:19:46;-1.70;99.90
7028;DHT22;3555;53.248;10.336;2023-12-04T09:22:13;-1.40;99.90
7028;DHT22;3555;53.248;10.336;2023-12-04T09:24:40;-1.80;99.90
7028;DHT22;3555;53.248;10.336;2023-12-04T09:27:07;-1.70;99.90
7028;DHT22;3555;53.248;10.336;2023-12-04T09:29:34;-1.40;99.90
7028;DHT22;3555;53.248;10.336;2023-12-04T09:32:03;-1.70;99.90
7028;DHT22;3555;53.248;10.336;2023-12-04T09:34:29;-1.70;99.90
7028;DHT22;3555;53.248;10.336;2023-12-04T09:36:56;-1.80;99.90
7028;DHT22;3555;53.248;10.336;2023-12-04T09:39:23;-1.20;99.90
7028;DHT22;3555;53.248;10.336;2023-12-04T09:41:50;-1.70;99.90
7028;DHT22;3555;53.248;10.336;2023-12-04T09:44:17;-1.70;99.90
7028;DHT22;3555;53.248;10.336;2023-12-04T09:46:45;-1.70;99.90
7028;DHT22;3555;53.248;10.336;2023-12-04T09:49:14;-1.60;99.90
7028;DHT22;3555;53.248;10.336;2023-12-04T09:51:42;-1.40;99.90
7028;DHT22;3555;53.248;10.336;2023-12-04T09:54:09;-1.60;99.90
7028;DHT22;3555;53.248;10.336;2023-12-04T09:56:36;-0.90;99.90
7028;DHT22;3555;53.248;10.336;2023-12-04T09:59:06;-1.60;99.90
7028;DHT22;3555;53.248;10.336;2023-12-04T10:01:34;-1.50;99.90
7028;DHT22;3555;53.248;10.336;2023-12-04T10:04:03;-1.40;99.90
7028;DHT22;3555;53.248;10.336;2023-12-04T10:06:33;-1.40;99.90
7028;DHT22;3555;53.248;10.336;2023-12-04T10:09:02;-1.50;99.90
7028;DHT22;3555;53.248;10.336;2023-12-04T10:11:29;-1.40;99.90
7028;DHT22;3555;53.248;10.336;2023-12-04T10:13:56;-1.50;99.90
7028;DHT22;3555;53.248;10.336;2023-12-04T10:16:33;-1.40;99.90
7028;DHT22;3555;53.248;10.336;2023-12-04T10:19:17;-1.40;99.90
7028;DHT22;3555;53.248;10.336;2023-12-04T10:21:46;-1.30;99.90
7028;DHT22;3555;53.248;10.336;2023-12-04T10:24:30;-1.30;99.90
7028;DHT22;3555;53.248;10.336;2023-12-04T10:26:58;-1.40;99.90
7028;DHT22;3555;53.248;10.336;2023-12-04T10:29:27;-1.50;99.90
7028;DHT22;3555;53.248;10.336;2023-12-04T10:31:55;-1.30;99.90
7028;DHT22;3555;53.248;10.336;2023-12-04T10:34:25;-1.30;99.90
7028;DHT22;3555;53.248;10.336;2023-12-04T10:36:53;-1.30;99.90
7028;DHT22;3555;53.248;10.336;2023-12-04T10:39:23;-1.30;99.90
7028;DHT22;3555;53.248;10.336;2023-12-04T10:42:01;-1.20;99.90
7028;DHT22;3555;53.248;10.336;2023-12-04T10:44:30;-1.20;99.90
7028;DHT22;3555;53.248;10.336;2023-12-04T10:46:57;-1.20;99.90
7028;DHT22;3555;53.248;10.336;2023-12-04T10:49:27;-1.10;99.90
7028;DHT22;3555;53.248;10.336;2023-12-04T10:51:57;-1.10;99.90
7028;DHT22;3555;53.248;10.336;2023-12-04T10:54:25;-1.00;99.90
7028;DHT22;3555;53.248;10.336;2023-12-04T10:56:52;-1.00;99.90
7028;DHT22;3555;53.248;10.336;2023-12-04T10:59:26;-0.10;99.90
7028;DHT22;3555;53.248;10.336;2023-12-04T11:01:54;-1.00;99.90
7028;DHT22;3555;53.248;10.336;2023-12-04T11:04:24;-1.10;99.90
7028;DHT22;3555;53.248;10.336;2023-12-04T11:06:53;-1.10;99.90
7028;DHT22;3555;53.248;10.336;2023-12-04T11:09:22;-1.00;99.90
7028;DHT22;3555;53.248;10.336;2023-12-04T11:11:56;-1.00;99.90
7028;DHT22;3555;53.248;10.336;2023-12-04T11:14:25;-0.60;99.90
7028;DHT22;3555;53.248;10.336;2023-12-04T11:17:00;-1.00;99.90
7028;DHT22;3555;53.248;10.336;2023-12-04T11:19:30;-0.60;99.90
7028;DHT22;3555;53.248;10.336;2023-12-04T11:21:59;-0.90;99.90
7028;DHT22;3555;53.248;10.336;2023-12-04T11:24:27;-1.00;99.90
7028;DHT22;3555;53.248;10.336;2023-12-04T11:26:55;-1.00;99.90
7028;DHT22;3555;53.248;10.336;2023-12-04T11:29:23;-1.00;99.90
7028;DHT22;3555;53.248;10.336;2023-12-04T11:31:50;-1.00;99.90
7028;DHT22;3555;53.248;10.336;2023-12-04T11:34:17;-1.00;99.90
7028;DHT22;3555;53.248;10.336;2023-12-04T11:36:44;-1.00;99.90
7028;DHT22;3555;53.248;10.336;2023-12-04T11:39:11;-1.00;99.90
7028;DHT22;3555;53.248;10.336;2023-12-04T11:41:40;-1.00;99.90
7028;DHT22;3555;53.248;10.336;2023-12-04T11:44:12;-0.90;99.90
7028;DHT22;3555;53.248;10.336;2023-12-04T11:46:41;-0.60;99.90
7028;DHT22;3555;53.248;10.336;2023-12-04T11:49:28;-0.80;99.90
7028;DHT22;3555;53.248;10.336;2023-12-04T11:51:55;-0.80;99.90
7028;DHT22;3555;53.248;10.336;2023-12-04T11:54:22;-0.80;99.90
7028;DHT22;3555;53.248;10.336;2023-12-04T11:57:00;-0.70;99.90
7028;DHT22;3555;53.248;10.336;2023-12-04T11:59:28;-0.60;99.90
7028;DHT22;3555;53.248;10.336;2023-12-04T12:01:55;-0.50;99.90
7028;DHT22;3555;53.248;10.336;2023-12-04T12:04:23;-0.40;99.90
7028;DHT22;3555;53.248;10.336;2023-12-04T12:06:50;-0.40;99.90
7028;DHT22;3555;53.248;10.336;2023-12-04T12:09:17;-0.50;99.90
7028;DHT22;3555;53.248;10.336;2023-12-04T12:11:45;-0.50;99.90
7028;DHT22;3555;53.248;10.336;2023-12-04T12:14:13;-0.40;99.90
7028;DHT22;3555;53.248;10.336;2023-12-04T12:16:40;-0.40;99.90
7028;DHT22;3555;53.248;10.336;2023-12-04T12:19:07;-0.40;99.90
7028;DHT22;3555;53.248;10.336;2023-12-04T12:21:34;-0.30;99.90
7028;DHT22;3555;53.248;10.336;2023-12-04T12:24:01;-0.30;99.90
7028;DHT22;3555;53.248;10.336;2023-12-04T12:26:28;-0.30;99.90
7028;DHT22;3555;53.248;10.336;2023-12-04T12:28:56;-0.30;99.90
7028;DHT22;3555;53.248;10.336;2023-12-04T12:31:24;-0.30;99.90
7028;DHT22;3555;53.248;10.336;2023-12-04T12:33:51;-0.30;99.90
7028;DHT22;3555;53.248;10.336;2023-12-04T12:36:18;-0.20;99.90
7028;DHT22;3555;53.248;10.336;2023-12-04T12:38:45;-0.20;99.90
7028;DHT22;3555;53.248;10.336;2023-12-04T12:41:15;-0.10;99.90
7028;DHT22;3555;53.248;10.336;2023-12-04T12:43:42;-0.10;99.90
7028;DHT22;3555;53.248;10.336;2023-12-04T12:46:10;0.00;99.90
7028;DHT22;3555;53.248;10.336;2023-12-04T12:48:38;0.10;99.90
7028;DHT22;3555;53.248;10.336;2023-12-04T12:51:06;0.00;99.90
7028;DHT22;3555;53.248;10.336;2023-12-04T12:53:36;0.20;99.90
7028;DHT22;3555;53.248;10.336;2023-12-04T12:56:04;0.10;99.90
7028;DHT22;3555;53.248;10.336;2023-12-04T12:58:33;0.30;99.90
7028;DHT22;3555;53.248;10.336;2023-12-04T13:01:00;0.20;99.90
7028;DHT22;3555;53.248;10.336;2023-12-04T13:03:28;0.20;99.90
7028;DHT22;3555;53.248;10.336;2023-12-04T13:05:58;0.20;99.90
7028;DHT22;3555;53.248;10.336;2023-12-04T13:08:24;0.30;99.90
7028;DHT22;3555;53.248;10.336;2023-12-04T13:10:51;0.30;99.90
7028;DHT22;3555;53.248;10.336;2023-12-04T13:13:18;0.30;99.90
7028;DHT22;3555;53.248;10.336;2023-12-04T13:15:45;0.30;99.90
7028;DHT22;3555;53.248;10.336;2023-12-04T13:18:12;0.30;99.90
7028;DHT22;3555;53.248;10.336;2023-12-04T13:20:39;0.40;99.90
7028;DHT22;3555;53.248;10.336;2023-12-04T13:23:07;0.40;99.90
7028;DHT22;3555;53.248;10.336;2023-12-04T13:25:34;0.40;99.90
7028;DHT22;3555;53.248;10.336;2023-12-04T13:28:01;0.40;99.90
7028;DHT22;3555;53.248;10.336;2023-12-04T13:30:28;-0.60;99.90
7028;DHT22;3555;53.248;10.336;2023-12-04T13:32:55;0.10;99.90
7028;DHT22;3555;53.248;10.336;2023-12-04T13:35:21;0.00;99.90
7028;DHT22;3555;53.248;10.336;2023-12-04T13:37:48;0.00;99.90
7028;DHT22;3555;53.248;10.336;2023-12-04T13:40:22;0.00;99.90
7028;DHT22;3555;53.248;10.336;2023-12-04T13:42:52;0.00;99.90
7028;DHT22;3555;53.248;10.336;2023-12-04T13:45:41;-0.10;99.90
7028;DHT22;3555;53.248;10.336;2023-12-04T13:48:08;-0.10;99.90
7028;DHT22;3555;53.248;10.336;2023-12-04T13:50:35;-0.10;99.90
7028;DHT22;3555;53.248;10.336;2023-12-04T13:53:01;-0.10;99.90
7028;DHT22;3555;53.248;10.336;2023-12-04T13:55:29;-0.20;99.90
7028;DHT22;3555;53.248;10.336;2023-12-04T13:58:13;-0.30;99.90
7028;DHT22;3555;53.248;10.336;2023-12-04T14:01:04;-0.30;99.90
7028;DHT22;3555;53.248;10.336;2023-12-04T14:03:39;-0.30;99.90
7028;DHT22;3555;53.248;10.336;2023-12-04T14:06:06;-0.30;99.90
7028;DHT22;3555;53.248;10.336;2023-12-04T14:08:33;-0.30;99.90
7028;DHT22;3555;53.248;10.336;2023-12-04T14:11:01;-0.20;99.90
7028;DHT22;3555;53.248;10.336;2023-12-04T14:13:28;-0.20;99.90
7028;DHT22;3555;53.248;10.336;2023-12-04T14:15:55;-0.20;99.90
7028;DHT22;3555;53.248;10.336;2023-12-04T14:18:23;-0.30;99.90
7028;DHT22;3555;53.248;10.336;2023-12-04T14:20:51;-0.30;99.90
7028;DHT22;3555;53.248;10.336;2023-12-04T14:23:18;-0.30;99.90
7028;DHT22;3555;53.248;10.336;2023-12-04T14:25:46;-0.30;99.90
7028;DHT22;3555;53.248;10.336;2023-12-04T14:28:13;-0.40;99.90
7028;DHT22;3555;53.248;10.336;2023-12-04T14:30:40;0.10;99.90
7028;DHT22;3555;53.248;10.336;2023-12-04T14:33:07;-0.40;99.90
7028;DHT22;3555;53.248;10.336;2023-12-04T14:35:36;-0.40;99.90
7028;DHT22;3555;53.248;10.336;2023-12-04T14:38:03;-0.40;99.90
7028;DHT22;3555;53.248;10.336;2023-12-04T14:40:30;-0.30;99.90
7028;DHT22;3555;53.248;10.336;2023-12-04T14:42:57;-0.30;99.90
7028;DHT22;3555;53.248;10.336;2023-12-04T14:45:24;-0.30;99.90
7028;DHT22;3555;53.248;10.336;2023-12-04T14:47:51;-0.40;99.90
7028;DHT22;3555;53.248;10.336;2023-12-04T14:50:21;-0.50;99.90
7028;DHT22;3555;53.248;10.336;2023-12-04T14:52:50;-0.50;99.90
7028;DHT22;3555;53.248;10.336;2023-12-04T14:55:20;-0.50;99.90
7028;DHT22;3555;53.248;10.336;2023-12-04T14:58:04;-0.50;99.90
7028;DHT22;3555;53.248;10.336;2023-12-04T15:01:07;-0.50;99.90
7028;DHT22;3555;53.248;10.336;2023-12-04T15:04:22;-0.50;99.90
7028;DHT22;3555;53.248;10.336;2023-12-04T15:07:21;-0.60;99.90
7028;DHT22;3555;53.248;10.336;2023-12-04T15:10:07;-0.60;99.90
7028;DHT22;3555;53.248;10.336;2023-12-04T15:13:06;-0.60;99.90
7028;DHT22;3555;53.248;10.336;2023-12-04T15:15:57;-0.50;99.90
7028;DHT22;3555;53.248;10.336;2023-12-04T15:18:42;-0.50;99.90
7028;DHT22;3555;53.248;10.336;2023-12-04T15:21:26;-0.50;99.90
7028;DHT22;3555;53.248;10.336;2023-12-04T15:23:52;-0.50;99.90
7028;DHT22;3555;53.248;10.336;2023-12-04T15:26:20;-0.60;99.90
7028;DHT22;3555;53.248;10.336;2023-12-04T15:28:46;-0.60;99.90
7028;DHT22;3555;53.248;10.336;2023-12-04T15:31:13;-0.50;99.90
7028;DHT22;3555;53.248;10.336;2023-12-04T15:33:39;-0.50;99.90
7028;DHT22;3555;53.248;10.336;2023-12-04T15:36:06;-0.50;99.90
7028;DHT22;3555;53.248;10.336;2023-12-04T15:38:35;-0.60;99.90
7028;DHT22;3555;53.248;10.336;2023-12-04T15:41:01;-0.60;99.90
7028;DHT22;3555;53.248;10.336;2023-12-04T15:43:29;-0.60;99.90
7028;DHT22;3555;53.248;10.336;2023-12-04T15:45:55;-0.60;99.90
7028;DHT22;3555;53.248;10.336;2023-12-04T15:48:22;-0.60;99.90
7028;DHT22;3555;53.248;10.336;2023-12-04T15:50:48;-0.60;99.90
7028;DHT22;3555;53.248;10.336;2023-12-04T15:53:15;-0.60;99.90
7028;DHT22;3555;53.248;10.336;2023-12-04T15:55:41;-0.70;99.90